createdAt,value
2022-11-08T00:01:29.790Z,13.04
2022-11-08T00:03:51.692Z,13.03
2022-11-08T00:06:31.822Z,13.02
2022-11-08T00:09:11.906Z,12.99
2022-11-08T00:11:52.167Z,12.96
2022-11-08T00:14:14.040Z,12.91
2022-11-08T00:16:35.953Z,12.90
2022-11-08T00:18:58.327Z,12.88
2022-11-08T00:21:20.182Z,12.87
2022-11-08T00:23:43.943Z,12.84
2022-11-08T00:26:06.879Z,12.82
2022-11-08T00:28:28.936Z,12.80
2022-11-08T00:30:50.781Z,12.80
2022-11-08T00:33:12.636Z,12.80
2022-11-08T00:35:34.519Z,12.79
2022-11-08T00:37:56.424Z,12.76
2022-11-08T00:40:18.296Z,12.75
2022-11-08T00:42:40.249Z,12.70
2022-11-08T00:45:02.189Z,12.67
2022-11-08T00:47:24.015Z,12.66
2022-11-08T00:49:46.231Z,12.61
2022-11-08T00:52:08.465Z,12.57
2022-11-08T00:54:30.497Z,12.54
2022-11-08T00:56:52.365Z,12.52
2022-11-08T00:59:17.779Z,12.48
2022-11-08T01:01:41.772Z,12.45
2022-11-08T01:04:03.806Z,12.41
2022-11-08T01:06:26.373Z,12.39
2022-11-08T01:08:49.898Z,12.37
2022-11-08T01:11:20.394Z,12.34
2022-11-08T01:13:42.747Z,12.31
2022-11-08T01:16:19.223Z,12.31
2022-11-08T01:18:41.505Z,12.30
2022-11-08T01:21:05.015Z,12.30
2022-11-08T01:23:26.840Z,12.29
2022-11-08T01:25:49.929Z,12.29
2022-11-08T01:28:13.034Z,12.30
2022-11-08T01:30:44.468Z,12.31
2022-11-08T01:33:06.795Z,12.31
2022-11-08T01:35:30.773Z,12.30
2022-11-08T01:37:52.565Z,12.28
2022-11-08T01:40:14.437Z,12.29
2022-11-08T01:42:36.207Z,12.28
2022-11-08T01:45:08.871Z,12.30
2022-11-08T01:47:31.125Z,12.29
2022-11-08T01:50:00.403Z,12.27
2022-11-08T01:52:39.468Z,12.27
2022-11-08T01:55:10.185Z,12.26
2022-11-08T01:57:46.610Z,12.27
2022-11-08T02:00:12.784Z,12.27
2022-11-08T02:02:37.772Z,12.27
2022-11-08T02:05:00.833Z,12.29
2022-11-08T02:07:24.578Z,12.29
2022-11-08T02:09:48.287Z,12.31
2022-11-08T02:12:11.153Z,12.31
2022-11-08T02:14:33.279Z,12.30
2022-11-08T02:16:55.263Z,12.30
2022-11-08T02:19:51.106Z,12.31
2022-11-08T02:22:26.271Z,12.32
2022-11-08T02:24:48.366Z,12.31
2022-11-08T02:27:12.484Z,12.30
2022-11-08T02:29:36.317Z,12.28
2022-11-08T02:32:00.798Z,12.26
2022-11-08T02:34:36.841Z,12.24
2022-11-08T02:37:01.416Z,12.22
2022-11-08T02:39:23.725Z,12.20
2022-11-08T02:41:45.576Z,12.17
2022-11-08T02:44:07.469Z,12.16
2022-11-08T02:46:29.324Z,12.15
2022-11-08T02:48:51.328Z,12.15
2022-11-08T02:51:13.143Z,12.13
2022-11-08T02:53:35.172Z,12.11
2022-11-08T02:55:57.115Z,12.09
2022-11-08T02:58:19.316Z,12.09
2022-11-08T03:00:41.483Z,12.08
2022-11-08T03:03:03.974Z,12.07
2022-11-08T03:05:28.776Z,12.06
2022-11-08T03:07:51.362Z,12.05
2022-11-08T03:10:14.947Z,12.03
2022-11-08T03:12:37.919Z,12.02
2022-11-08T03:14:59.708Z,12.01
2022-11-08T03:17:21.589Z,11.99
2022-11-08T03:19:43.510Z,11.97
2022-11-08T03:22:05.429Z,12.00
2022-11-08T03:24:27.326Z,11.96
2022-11-08T03:26:49.063Z,11.95
2022-11-08T03:29:10.854Z,11.95
2022-11-08T03:31:32.638Z,11.92
2022-11-08T03:33:54.385Z,11.89
2022-11-08T03:36:16.234Z,11.88
2022-11-08T03:38:38.231Z,11.85
2022-11-08T03:41:00.085Z,11.83
2022-11-08T03:43:21.908Z,11.80
2022-11-08T03:45:46.384Z,11.79
2022-11-08T03:48:08.755Z,11.77
2022-11-08T03:50:30.698Z,11.73
2022-11-08T03:52:56.545Z,11.73
2022-11-08T03:55:22.945Z,11.71
2022-11-08T03:57:48.075Z,11.68
2022-11-08T04:00:13.094Z,11.68
2022-11-08T04:02:35.040Z,11.67
2022-11-08T04:04:56.921Z,11.66
2022-11-08T04:07:18.815Z,11.65
2022-11-08T04:09:40.644Z,11.65
2022-11-08T04:12:20.812Z,11.65
2022-11-08T04:15:01.300Z,11.62
2022-11-08T04:17:43.146Z,11.60
2022-11-08T04:20:24.326Z,11.59
2022-11-08T04:22:46.198Z,11.57
2022-11-08T04:25:08.463Z,11.56
2022-11-08T04:27:30.413Z,11.55
2022-11-08T04:29:52.229Z,11.55
2022-11-08T04:32:14.400Z,11.55
2022-11-08T04:34:36.298Z,11.54
2022-11-08T04:36:58.122Z,11.54
2022-11-08T04:39:19.894Z,11.54
2022-11-08T04:41:41.665Z,11.53
2022-11-08T04:44:03.546Z,11.54
2022-11-08T04:46:28.418Z,11.54
2022-11-08T04:48:54.017Z,11.55
2022-11-08T04:51:26.996Z,11.56
2022-11-08T04:53:49.800Z,11.55
2022-11-08T04:56:15.275Z,11.56
2022-11-08T04:58:43.667Z,11.59
2022-11-08T05:01:08.208Z,11.61
2022-11-08T05:03:31.064Z,11.60
2022-11-08T05:05:52.903Z,11.56
2022-11-08T05:08:14.808Z,11.58
2022-11-08T05:10:36.933Z,11.59
2022-11-08T05:12:58.805Z,11.60
2022-11-08T05:15:21.935Z,11.61
2022-11-08T05:17:43.669Z,11.62
2022-11-08T05:20:25.476Z,11.62
2022-11-08T05:23:05.751Z,11.61
2022-11-08T05:25:27.779Z,11.61
2022-11-08T05:27:49.589Z,11.62
2022-11-08T05:30:11.899Z,11.64
2022-11-08T05:32:33.804Z,11.64
2022-11-08T05:34:55.692Z,11.65
2022-11-08T05:37:17.601Z,11.65
2022-11-08T05:39:39.461Z,11.64
2022-11-08T05:42:01.343Z,11.65
2022-11-08T05:44:23.252Z,11.65
2022-11-08T05:46:45.093Z,11.66
2022-11-08T05:49:07.077Z,11.67
2022-11-08T05:51:28.854Z,11.67
2022-11-08T05:53:50.793Z,11.66
2022-11-08T05:56:12.826Z,11.64
2022-11-08T05:58:36.267Z,11.64
2022-11-08T06:01:11.287Z,11.65
2022-11-08T06:03:33.982Z,11.62
2022-11-08T06:05:56.771Z,11.61
2022-11-08T06:08:18.582Z,11.61
2022-11-08T06:10:40.448Z,11.60
2022-11-08T06:13:02.386Z,11.58
2022-11-08T06:15:24.182Z,11.59
2022-11-08T06:17:45.997Z,11.57
2022-11-08T06:20:11.844Z,11.57
2022-11-08T06:22:36.827Z,11.54
2022-11-08T06:24:58.830Z,11.51
2022-11-08T06:27:20.688Z,11.51
2022-11-08T06:29:42.963Z,11.53
2022-11-08T06:32:04.978Z,11.52
2022-11-08T06:34:26.791Z,11.50
2022-11-08T06:36:48.672Z,11.51
2022-11-08T06:39:10.527Z,11.51
2022-11-08T06:41:33.047Z,11.50
2022-11-08T06:43:55.060Z,11.50
2022-11-08T06:46:17.552Z,11.49
2022-11-08T06:48:39.416Z,11.51
2022-11-08T06:51:02.017Z,11.50
2022-11-08T06:53:24.021Z,11.49
2022-11-08T06:55:45.986Z,11.49
2022-11-08T06:58:08.211Z,11.46
2022-11-08T07:00:30.920Z,11.47
2022-11-08T07:02:58.193Z,11.48
2022-11-08T07:05:20.844Z,11.48
2022-11-08T07:07:42.767Z,11.49
2022-11-08T07:10:06.312Z,11.51
2022-11-08T07:12:28.280Z,11.52
2022-11-08T07:14:50.162Z,11.55
2022-11-08T07:17:12.037Z,11.59
2022-11-08T07:19:34.021Z,11.61
2022-11-08T07:21:55.993Z,11.64
2022-11-08T07:24:18.224Z,11.68
2022-11-08T07:26:40.489Z,11.71
2022-11-08T07:29:02.895Z,11.74
2022-11-08T07:31:25.382Z,11.78
2022-11-08T07:33:47.656Z,11.81
2022-11-08T07:36:09.898Z,11.86
2022-11-08T07:38:32.123Z,11.89
2022-11-08T07:41:00.008Z,11.94
2022-11-08T07:43:21.917Z,11.93
2022-11-08T07:45:44.363Z,11.96
2022-11-08T07:48:15.697Z,11.99
2022-11-08T07:50:38.763Z,12.05
2022-11-08T07:53:04.834Z,12.10
2022-11-08T07:55:28.712Z,12.14
2022-11-08T07:57:51.101Z,12.20
2022-11-08T08:00:15.178Z,12.23
2022-11-08T08:02:37.697Z,12.28
2022-11-08T08:05:00.851Z,12.33
2022-11-08T08:07:31.748Z,12.39
2022-11-08T08:09:57.764Z,12.40
2022-11-08T08:12:21.008Z,12.41
2022-11-08T08:14:45.612Z,12.41
2022-11-08T08:17:07.610Z,12.42
2022-11-08T08:19:31.459Z,12.44
2022-11-08T08:21:53.447Z,12.46
2022-11-08T08:24:15.600Z,12.47
2022-11-08T08:26:38.284Z,12.50
2022-11-08T08:29:02.054Z,12.56
2022-11-08T08:32:53.389Z,12.62
2022-11-08T08:35:19.845Z,12.67
2022-11-08T08:37:41.896Z,12.74
2022-11-08T08:40:04.496Z,12.78
2022-11-08T08:42:26.398Z,12.84
2022-11-08T08:44:48.447Z,12.93
2022-11-08T08:47:10.291Z,12.98
2022-11-08T08:49:32.163Z,13.02
2022-11-08T08:51:54.159Z,13.09
2022-11-08T08:54:16.032Z,13.11
2022-11-08T08:56:37.981Z,13.14
2022-11-08T09:01:41.915Z,13.26
2022-11-08T09:04:04.760Z,13.35
2022-11-08T09:06:26.732Z,13.42
2022-11-08T09:08:48.736Z,13.46
2022-11-08T09:11:10.668Z,13.50
2022-11-08T09:13:32.712Z,13.55
2022-11-08T09:15:55.523Z,13.59
2022-11-08T09:18:17.785Z,13.59
2022-11-08T09:20:39.775Z,13.62
2022-11-08T09:23:03.262Z,13.66
2022-11-08T09:25:25.211Z,13.67
2022-11-08T09:27:47.188Z,13.69
2022-11-08T09:30:09.968Z,13.72
2022-11-08T09:32:46.569Z,13.79
2022-11-08T09:35:14.146Z,13.85
2022-11-08T09:37:35.985Z,13.89
2022-11-08T09:39:57.922Z,13.93
2022-11-08T09:42:38.448Z,13.94
2022-11-08T09:45:24.733Z,13.97
2022-11-08T09:47:54.519Z,14.01
2022-11-08T09:50:26.797Z,14.07
2022-11-08T09:53:25.878Z,14.12
2022-11-08T09:55:59.772Z,14.15
2022-11-08T09:58:30.395Z,14.17
2022-11-08T10:00:53.574Z,14.17
2022-11-08T10:03:18.103Z,14.19
2022-11-08T10:05:50.428Z,14.22
2022-11-08T10:08:32.049Z,14.30
2022-11-08T10:11:27.681Z,14.39
2022-11-08T10:14:02.515Z,14.46
2022-11-08T10:16:55.329Z,14.51
2022-11-08T10:19:54.917Z,14.56
2022-11-08T10:22:37.811Z,14.65
2022-11-08T10:25:19.358Z,14.80
2022-11-08T10:27:43.799Z,14.96
2022-11-08T10:30:27.939Z,15.12
2022-11-08T10:32:55.229Z,15.23
2022-11-08T10:35:27.585Z,15.36
2022-11-08T10:37:54.006Z,15.41
2022-11-08T10:40:25.458Z,15.43
2022-11-08T10:42:56.341Z,15.41
2022-11-08T10:45:18.533Z,15.41
2022-11-08T10:47:44.307Z,15.44
2022-11-08T10:50:20.352Z,15.47
2022-11-08T10:53:01.888Z,15.46
2022-11-08T10:55:38.621Z,15.45
2022-11-08T10:58:00.816Z,15.41
2022-11-08T11:00:22.770Z,15.42
2022-11-08T11:02:48.748Z,15.40
2022-11-08T11:05:18.028Z,15.42
2022-11-08T11:07:40.062Z,15.43
2022-11-08T11:10:28.498Z,15.45
2022-11-08T11:13:10.205Z,15.45
2022-11-08T11:15:48.001Z,15.45
2022-11-08T11:18:35.812Z,15.47
2022-11-08T11:21:20.975Z,15.49
2022-11-08T11:24:08.039Z,15.54
2022-11-08T11:26:34.461Z,15.58
2022-11-08T11:29:04.858Z,15.61
2022-11-08T11:31:26.912Z,15.61
2022-11-08T11:33:48.834Z,15.62
2022-11-08T11:36:18.944Z,15.63
2022-11-08T11:38:58.253Z,15.64
2022-11-08T11:41:30.482Z,15.71
2022-11-08T11:44:05.051Z,15.76
2022-11-08T11:47:02.759Z,15.84
2022-11-08T11:49:29.857Z,15.92
2022-11-08T11:51:56.336Z,15.97
2022-11-08T11:54:18.315Z,15.99
2022-11-08T11:57:24.805Z,15.99
2022-11-08T12:00:15.515Z,15.98
2022-11-08T12:03:20.842Z,16.07
2022-11-08T12:06:12.097Z,16.11
2022-11-08T12:08:45.937Z,16.18
2022-11-08T12:11:36.956Z,16.23
2022-11-08T12:14:19.096Z,16.25
2022-11-08T12:16:59.566Z,16.24
2022-11-08T12:19:36.519Z,16.23
2022-11-08T12:22:39.520Z,16.24
2022-11-08T12:25:07.219Z,16.18
2022-11-08T12:27:55.903Z,16.15
2022-11-08T12:31:02.715Z,16.18
2022-11-08T12:34:17.389Z,16.16
2022-11-08T12:36:43.094Z,16.15
2022-11-08T12:39:25.066Z,16.15
2022-11-08T12:42:18.788Z,16.12
2022-11-08T12:45:21.119Z,16.06
2022-11-08T12:48:17.285Z,16.02
2022-11-08T12:51:11.804Z,15.95
2022-11-08T12:54:00.937Z,15.94
2022-11-08T12:56:37.994Z,15.93
2022-11-08T12:59:01.314Z,15.94
2022-11-08T13:01:24.573Z,15.95
2022-11-08T13:04:06.223Z,15.96
2022-11-08T13:06:53.685Z,15.99
2022-11-08T13:09:46.163Z,16.01
2022-11-08T13:12:45.723Z,16.04
2022-11-08T13:15:21.737Z,16.09
2022-11-08T13:18:06.111Z,16.15
2022-11-08T13:20:42.175Z,16.17
2022-11-08T13:23:12.975Z,16.23
2022-11-08T13:25:37.050Z,16.33
2022-11-08T13:27:58.945Z,16.39
2022-11-08T13:30:20.743Z,16.44
2022-11-08T13:32:54.686Z,16.48
2022-11-08T13:35:22.594Z,16.49
2022-11-08T13:38:12.013Z,16.48
2022-11-08T13:41:03.723Z,16.48
2022-11-08T13:43:32.892Z,16.50
2022-11-08T13:45:55.157Z,16.46
2022-11-08T13:48:37.958Z,16.46
2022-11-08T13:51:35.663Z,16.48
2022-11-08T13:54:23.457Z,16.51
2022-11-08T13:56:50.669Z,16.54
2022-11-08T13:59:35.964Z,16.59
2022-11-08T14:01:57.905Z,16.63
2022-11-08T14:04:29.526Z,16.68
2022-11-08T14:07:25.442Z,16.67
2022-11-08T14:10:01.281Z,16.68
2022-11-08T14:13:01.713Z,16.65
2022-11-08T14:15:40.689Z,16.65
2022-11-08T14:18:20.905Z,16.64
2022-11-08T14:20:48.176Z,16.61
2022-11-08T14:23:19.727Z,16.60
2022-11-08T14:25:47.340Z,16.55
2022-11-08T14:28:28.917Z,16.57
2022-11-08T14:30:51.677Z,16.55
2022-11-08T14:33:22.755Z,16.54
2022-11-08T14:36:02.006Z,16.55
2022-11-08T14:38:25.886Z,16.51
2022-11-08T14:40:52.248Z,16.47
2022-11-08T14:43:14.874Z,16.42
2022-11-08T14:45:37.061Z,16.38
2022-11-08T14:48:04.711Z,16.37
2022-11-08T14:50:33.380Z,16.32
2022-11-08T14:52:55.697Z,16.25
2022-11-08T14:55:25.020Z,16.24
2022-11-08T14:57:47.195Z,16.19
2022-11-08T15:00:29.747Z,16.16
2022-11-08T15:03:01.051Z,16.11
2022-11-08T15:05:54.131Z,16.08
2022-11-08T15:08:26.044Z,16.04
2022-11-08T15:11:08.381Z,16.00
2022-11-08T15:13:40.432Z,15.99
2022-11-08T15:16:05.793Z,15.99
2022-11-08T15:18:35.590Z,15.98
2022-11-08T15:21:11.375Z,16.00
2022-11-08T15:23:46.882Z,16.00
2022-11-08T15:26:26.392Z,16.02
2022-11-08T15:29:17.313Z,16.01
2022-11-08T15:31:47.479Z,16.00
2022-11-08T15:34:37.523Z,15.99
2022-11-08T15:36:59.623Z,15.96
2022-11-08T15:39:35.938Z,15.93
2022-11-08T15:42:14.495Z,15.94
2022-11-08T15:45:05.070Z,15.93
2022-11-08T15:48:01.699Z,15.91
2022-11-08T15:50:29.740Z,15.89
2022-11-08T15:52:55.510Z,15.85
2022-11-08T15:55:29.656Z,15.86
2022-11-08T15:57:51.823Z,15.83
2022-11-08T16:00:22.466Z,15.80
2022-11-08T16:02:45.180Z,15.75
2022-11-08T16:05:29.553Z,15.71
2022-11-08T16:07:52.515Z,15.71
2022-11-08T16:10:17.581Z,15.71
2022-11-08T16:12:44.672Z,15.68
2022-11-08T16:15:21.728Z,15.67
2022-11-08T16:17:44.185Z,15.64
2022-11-08T16:20:30.996Z,15.64
2022-11-08T16:22:54.070Z,15.59
2022-11-08T16:25:16.135Z,15.56
2022-11-08T16:27:38.100Z,15.52
2022-11-08T16:30:00.422Z,15.48
2022-11-08T16:32:22.326Z,15.43
2022-11-08T16:34:44.195Z,15.39
2022-11-08T16:37:09.463Z,15.36
2022-11-08T16:39:31.417Z,15.33
2022-11-08T16:41:53.461Z,15.31
2022-11-08T16:44:15.491Z,15.29
2022-11-08T16:46:37.856Z,15.23
2022-11-08T16:49:00.146Z,15.20
2022-11-08T16:51:25.351Z,15.15
2022-11-08T16:53:48.964Z,15.10
2022-11-08T16:56:11.055Z,15.10
2022-11-08T16:58:33.035Z,15.07
2022-11-08T17:00:56.522Z,15.05
2022-11-08T17:03:25.808Z,15.06
2022-11-08T17:05:48.412Z,15.03
2022-11-08T17:08:10.254Z,14.99
2022-11-08T17:10:32.123Z,14.97
2022-11-08T17:12:55.219Z,14.96
2022-11-08T17:15:21.835Z,14.97
2022-11-08T17:17:44.342Z,14.94
2022-11-08T17:20:09.627Z,14.92
2022-11-08T17:22:31.469Z,14.93
2022-11-08T17:24:53.339Z,14.89
2022-11-08T17:27:19.678Z,14.86
2022-11-08T17:29:41.687Z,14.85
2022-11-08T17:32:04.276Z,14.81
2022-11-08T17:34:26.416Z,14.77
2022-11-08T17:36:49.080Z,14.75
2022-11-08T17:39:14.747Z,14.74
2022-11-08T17:41:36.678Z,14.71
2022-11-08T17:43:58.946Z,14.70
2022-11-08T17:46:21.051Z,14.69
2022-11-08T17:48:43.118Z,14.71
2022-11-08T17:51:06.022Z,14.72
2022-11-08T17:53:29.366Z,14.73
2022-11-08T17:56:00.438Z,14.72
2022-11-08T17:58:23.775Z,14.73
2022-11-08T18:00:46.126Z,14.72
2022-11-08T18:03:13.164Z,14.75
2022-11-08T18:05:35.526Z,14.76
2022-11-08T18:07:57.465Z,14.77
2022-11-08T18:10:19.977Z,14.76
2022-11-08T18:12:45.967Z,14.77
2022-11-08T18:15:09.459Z,14.80
2022-11-08T18:17:31.563Z,14.80
2022-11-08T18:19:53.603Z,14.80
2022-11-08T18:22:15.568Z,14.80
2022-11-08T18:24:39.953Z,14.84
2022-11-08T18:27:01.935Z,14.85
2022-11-08T18:29:23.852Z,14.87
2022-11-08T18:31:45.912Z,14.87
2022-11-08T18:34:08.195Z,14.90
2022-11-08T18:36:31.178Z,14.90
2022-11-08T18:38:53.239Z,14.89
2022-11-08T18:41:19.711Z,14.90
2022-11-08T18:43:42.355Z,14.89
2022-11-08T18:46:06.938Z,14.88
2022-11-08T18:48:28.970Z,14.85
2022-11-08T18:50:51.108Z,14.86
2022-11-08T18:53:13.362Z,14.85
2022-11-08T18:55:35.928Z,14.85
2022-11-08T18:57:59.141Z,14.84
2022-11-08T19:00:21.576Z,14.86
2022-11-08T19:02:43.753Z,14.84
2022-11-08T19:05:06.201Z,14.83
2022-11-08T19:07:28.351Z,14.85
2022-11-08T19:09:51.445Z,14.86
2022-11-08T19:12:13.882Z,14.85
2022-11-08T19:14:44.683Z,14.83
2022-11-08T19:17:07.197Z,14.84
2022-11-08T19:19:29.288Z,14.83
2022-11-08T19:21:51.422Z,14.83
2022-11-08T19:24:16.739Z,14.83
2022-11-08T19:26:41.900Z,14.84
2022-11-08T19:29:05.733Z,14.81
2022-11-08T19:31:27.828Z,14.79
2022-11-08T19:33:53.760Z,14.78
2022-11-08T19:36:21.274Z,14.80
2022-11-08T19:38:43.765Z,14.81
2022-11-08T19:41:09.668Z,14.83
2022-11-08T19:43:35.278Z,14.84
2022-11-08T19:46:04.467Z,14.84
2022-11-08T19:48:26.367Z,14.86
2022-11-08T19:50:48.413Z,14.85
2022-11-08T19:53:10.454Z,14.86
2022-11-08T19:55:32.328Z,14.87
2022-11-08T19:57:54.203Z,14.92
2022-11-08T20:00:17.865Z,14.99
2022-11-08T20:02:39.810Z,15.00
2022-11-08T20:05:02.000Z,15.02
2022-11-08T20:07:23.869Z,15.04
2022-11-08T20:09:45.733Z,15.09
2022-11-08T20:12:08.452Z,15.14
2022-11-08T20:14:30.327Z,15.18
2022-11-08T20:16:53.999Z,15.23
2022-11-08T20:19:16.813Z,15.25
2022-11-08T20:21:42.029Z,15.26
2022-11-08T20:24:04.136Z,15.30
2022-11-08T20:26:27.660Z,15.30
2022-11-08T20:28:56.473Z,15.34
2022-11-08T20:31:22.977Z,15.37
2022-11-08T20:33:48.081Z,15.41
2022-11-08T20:36:13.665Z,15.45
2022-11-08T20:38:36.979Z,15.47
2022-11-08T20:41:02.537Z,15.49
2022-11-08T20:43:24.378Z,15.52
2022-11-08T20:45:47.463Z,15.54
2022-11-08T20:48:09.498Z,15.55
2022-11-08T20:50:31.732Z,15.58
2022-11-08T20:52:53.627Z,15.61
2022-11-08T20:55:15.470Z,15.61
2022-11-08T20:57:37.293Z,15.63
2022-11-08T21:00:11.566Z,15.62
2022-11-08T21:02:35.103Z,15.62
2022-11-08T21:04:56.981Z,15.62
2022-11-08T21:08:01.468Z,15.62
2022-11-08T21:10:26.904Z,15.62
2022-11-08T21:12:42.783Z,15.59
2022-11-08T21:15:05.249Z,15.57
2022-11-08T21:17:27.123Z,15.54
2022-11-08T21:19:51.026Z,15.55
2022-11-08T21:22:15.591Z,15.52
2022-11-08T21:24:37.325Z,15.48
2022-11-08T21:26:59.202Z,15.45
2022-11-08T21:29:22.277Z,15.44
2022-11-08T21:31:44.128Z,15.42
2022-11-08T21:34:06.059Z,15.38
2022-11-08T21:36:29.233Z,15.38
2022-11-08T21:38:51.400Z,15.35
2022-11-08T21:41:13.402Z,15.32
2022-11-08T21:43:43.347Z,15.27
2022-11-08T21:46:25.466Z,15.23
2022-11-08T21:48:53.853Z,15.23
2022-11-08T21:51:16.258Z,15.22
2022-11-08T21:53:46.983Z,15.18
2022-11-08T21:56:14.519Z,15.16
2022-11-08T21:58:36.409Z,15.14
2022-11-08T22:00:58.277Z,15.10
2022-11-08T22:03:20.233Z,15.10
2022-11-08T22:05:44.063Z,15.09
2022-11-08T22:08:05.934Z,15.07
2022-11-08T22:10:27.966Z,15.04
2022-11-08T22:12:49.815Z,15.02
2022-11-08T22:15:11.729Z,14.97
2022-11-08T22:17:33.727Z,14.97
2022-11-08T22:19:55.591Z,14.93
2022-11-08T22:22:17.586Z,14.90
2022-11-08T22:24:39.858Z,14.90
2022-11-08T22:27:02.181Z,14.86
2022-11-08T22:29:24.248Z,14.83
2022-11-08T22:31:46.489Z,14.81
2022-11-08T22:34:09.882Z,14.79
2022-11-08T22:36:32.231Z,14.75
2022-11-08T22:38:54.564Z,14.74
2022-11-08T22:41:21.748Z,14.71
2022-11-08T22:43:44.630Z,14.69
2022-11-08T22:46:06.612Z,14.68
2022-11-08T22:48:28.492Z,14.66
2022-11-08T22:50:50.377Z,14.63
2022-11-08T22:53:12.253Z,14.64
2022-11-08T22:55:34.310Z,14.62
2022-11-08T22:57:56.208Z,14.64
2022-11-08T23:00:18.892Z,14.59
2022-11-08T23:02:40.890Z,14.57
2022-11-08T23:05:02.718Z,14.55
2022-11-08T23:07:24.556Z,14.53
2022-11-08T23:09:46.520Z,14.52
2022-11-08T23:12:29.056Z,14.50
2022-11-08T23:15:20.075Z,14.49
2022-11-08T23:17:41.974Z,14.46
2022-11-08T23:20:22.841Z,14.47
2022-11-08T23:23:03.290Z,14.44
2022-11-08T23:25:25.101Z,14.42
2022-11-08T23:28:05.503Z,14.42
2022-11-08T23:30:46.008Z,14.42
2022-11-08T23:33:07.929Z,14.38
2022-11-08T23:35:29.772Z,14.38
2022-11-08T23:37:51.616Z,14.41
2022-11-08T23:40:34.366Z,14.40
2022-11-08T23:43:34.999Z,14.39
2022-11-08T23:45:58.524Z,14.35
2022-11-08T23:48:21.112Z,14.38
2022-11-08T23:50:51.648Z,14.37
2022-11-08T23:53:13.575Z,14.34
2022-11-08T23:55:35.367Z,14.37
2022-11-08T23:57:57.138Z,14.37
